Time;durP1;ratioP1;P1;durP2;ratioP2;P2;SDS_P1;SDS_P2;PMS_P1;PMS_P2;Temp;Humidity;BMP_temperature;BMP_pressure;BME280_temperature;BME280_humidity;BME280_pressure;Samples;Min_cycle;Max_cycle;Signal;HPM_P1;HPM_P2
2024/01/13 00:01:39;;;;;;;43.78;26.13;;;;;;;-1.91;67.70;100001.22;5149774;27;20039;-69
2024/01/13 00:04:06;;;;;;;48.33;27.13;;;;;;;-1.93;67.82;99990.81;5149373;27;20074;-70
2024/01/13 00:06:34;;;;;;;46.83;26.58;;;;;;;-1.95;67.78;99994.28;5149083;27;20099;-69
2024/01/13 00:09:00;;;;;;;49.67;26.73;;;;;;;-1.93;67.65;99987.34;5149299;27;20047;-69
2024/01/13 00:11:27;;;;;;;45.53;27.42;;;;;;;-1.98;67.79;99992.53;5149238;27;20203;-69
2024/01/13 00:13:54;;;;;;;47.13;25.10;;;;;;;-2.02;67.71;99990.78;5149125;27;20050;-69
2024/01/13 00:16:20;;;;;;;49.35;25.83;;;;;;;-2.04;67.92;99988.16;5130869;27;20038;-70
2024/01/13 00:18:47;;;;;;;44.42;26.30;;;;;;;-2.00;67.72;99991.66;5148953;27;20051;-70
2024/01/13 00:21:14;;;;;;;39.67;22.67;;;;;;;-2.05;67.83;99985.56;5148538;27;20103;-70
2024/01/13 00:23:42;;;;;;;40.28;24.33;;;;;;;-2.07;67.88;99992.47;5149210;27;20043;-71
2024/01/13 00:26:08;;;;;;;46.63;27.85;;;;;;;-2.11;67.84;99983.78;5148944;27;20042;-70
2024/01/13 00:28:35;;;;;;;51.10;28.90;;;;;;;-2.20;68.29;99986.34;5148944;27;20043;-67
2024/01/13 00:31:02;;;;;;;57.55;32.80;;;;;;;-1.99;70.76;99985.59;5148811;27;20211;-68
2024/01/13 00:33:28;;;;;;;48.22;26.55;;;;;;;-2.13;68.96;99997.63;5148831;27;20043;-70
2024/01/13 00:35:55;;;;;;;46.47;27.00;;;;;;;-2.18;68.53;100012.31;5148757;27;20064;-69
2024/01/13 00:38:22;;;;;;;48.47;27.33;;;;;;;-2.26;68.62;99995.81;5148992;27;20238;-69
2024/01/13 00:40:50;;;;;;;43.67;27.27;;;;;;;-2.27;68.43;99996.66;5148697;27;20043;-69
2024/01/13 00:43:16;;;;;;;43.55;25.30;;;;;;;-2.34;68.45;100001.81;5148313;27;20084;-69
2024/01/13 00:45:43;;;;;;;49.47;27.85;;;;;;;-2.34;68.57;99991.44;5148343;27;20359;-69
2024/01/13 00:48:10;;;;;;;52.80;25.55;;;;;;;-2.35;68.45;99988.84;5148528;27;20043;-68
2024/01/13 00:50:36;;;;;;;41.45;24.00;;;;;;;-2.38;68.26;99986.22;5148166;27;20043;-69
2024/01/13 00:53:03;;;;;;;48.35;25.80;;;;;;;-2.43;68.43;99990.50;5148403;27;20054;-69
2024/01/13 00:55:30;;;;;;;44.15;25.77;;;;;;;-2.44;68.52;99979.25;5148391;27;20176;-68
2024/01/13 00:57:57;;;;;;;44.90;25.30;;;;;;;-2.46;68.64;99975.78;5148355;27;20042;-68
2024/01/13 01:00:24;;;;;;;44.00;25.83;;;;;;;-2.46;68.52;99985.28;5148545;27;20050;-69
2024/01/13 01:02:51;;;;;;;44.33;26.10;;;;;;;-2.48;68.71;99985.28;5147913;27;20199;-69
2024/01/13 01:05:17;;;;;;;41.97;24.10;;;;;;;-2.51;68.77;99987.84;5147246;27;20084;-69
2024/01/13 01:07:44;;;;;;;40.17;24.85;;;;;;;-2.52;68.79;99986.13;5148089;27;20072;-68
2024/01/13 01:10:11;;;;;;;47.13;26.00;;;;;;;-2.57;68.69;99984.34;5147903;27;20038;-69
2024/01/13 01:12:37;;;;;;;46.08;23.83;;;;;;;-2.56;68.88;99989.53;5147978;27;20042;-68
2024/01/13 01:15:07;;;;;;;43.60;23.33;;;;;;;-2.56;68.92;100001.66;5147938;27;20299;-68
2024/01/13 01:17:33;;;;;;;40.67;23.67;;;;;;;-2.59;68.75;99981.75;5147639;27;20225;-68
2024/01/13 01:20:00;;;;;;;42.05;23.17;;;;;;;-2.64;69.19;99986.91;5147899;27;20150;-68
2024/01/13 01:22:27;;;;;;;42.25;25.00;;;;;;;-2.62;68.93;99985.19;5147315;27;20054;-68
2024/01/13 01:24:53;;;;;;;39.03;21.52;;;;;;;-2.89;69.14;99958.13;5147680;27;20340;-69
2024/01/13 01:27:20;;;;;;;36.85;21.08;;;;;;;-2.69;69.21;99975.59;5147673;27;20054;-69
2024/01/13 01:29:46;;;;;;;40.33;22.67;;;;;;;-2.73;69.23;99971.25;5129380;27;20039;-69
2024/01/13 01:32:14;;;;;;;37.85;22.42;;;;;;;-2.71;69.33;99963.47;5147900;27;20039;-70
2024/01/13 01:34:41;;;;;;;39.70;22.48;;;;;;;-2.71;69.28;99958.28;5147281;27;20252;-69
2024/01/13 01:37:08;;;;;;;40.03;22.05;;;;;;;-2.73;69.26;99958.28;5147560;27;20051;-69
2024/01/13 01:39:34;;;;;;;41.38;20.90;;;;;;;-2.78;69.49;99946.13;5147511;27;20043;-69
2024/01/13 01:42:01;;;;;;;39.65;21.40;;;;;;;-2.81;69.58;99951.28;5147349;27;20104;-69
2024/01/13 01:44:28;;;;;;;38.13;23.13;;;;;;;-2.82;69.64;99941.78;5147614;27;20064;-69
2024/01/13 01:46:55;;;;;;;39.47;22.90;;;;;;;-2.80;69.55;99953.03;5147263;27;20100;-69
2024/01/13 01:49:23;;;;;;;40.53;21.58;;;;;;;-3.04;69.88;99919.97;5147406;27;20067;-69
2024/01/13 01:51:50;;;;;;;41.22;22.08;;;;;;;-2.84;69.72;99952.13;5147638;27;20058;-69
2024/01/13 01:54:17;;;;;;;31.75;18.75;;;;;;;-2.87;69.82;99938.28;5147196;27;20035;-69
2024/01/13 01:56:44;;;;;;;41.17;22.75;;;;;;;-2.87;69.78;99941.72;5147230;27;20039;-69
2024/01/13 01:59:11;;;;;;;39.75;21.92;;;;;;;-2.93;70.24;99938.22;5147006;27;20215;-69
2024/01/13 02:01:38;;;;;;;34.90;19.80;;;;;;;-3.16;69.89;99896.53;5147205;27;20114;-69
2024/01/13 02:04:05;;;;;;;34.88;20.55;;;;;;;-2.92;69.94;99940.81;5146755;27;20106;-69
2024/01/13 02:06:33;;;;;;;36.08;20.67;;;;;;;-2.92;70.09;99939.97;5147090;27;20051;-69
2024/01/13 02:09:01;;;;;;;37.58;19.98;;;;;;;-2.90;69.85;99939.13;5147380;27;20167;-68
2024/01/13 02:11:27;;;;;;;39.33;21.35;;;;;;;-2.89;70.00;99937.38;5147002;27;20066;-69
2024/01/13 02:13:54;;;;;;;38.15;22.85;;;;;;;-2.93;70.17;99938.22;5146985;27;20047;-69
2024/01/13 02:16:21;;;;;;;41.85;21.45;;;;;;;-3.25;70.01;99881.78;5147101;27;20088;-69
2024/01/13 02:18:48;;;;;;;40.00;21.25;;;;;;;-2.95;70.28;99925.25;5128709;27;20039;-69
2024/01/13 02:21:15;;;;;;;37.47;20.58;;;;;;;-3.02;70.51;99906.16;5146398;27;20051;-69
2024/01/13 02:23:42;;;;;;;35.10;19.50;;;;;;;-2.99;70.51;99926.06;5128845;28;20100;-69
2024/01/13 02:26:09;;;;;;;38.63;19.88;;;;;;;-3.00;70.35;99925.19;5146825;28;20292;-69
2024/01/13 02:28:36;;;;;;;40.40;22.48;;;;;;;-2.97;70.16;99919.16;5146636;28;20039;-69
2024/01/13 02:31:03;;;;;;;41.25;22.20;;;;;;;-2.99;70.40;99913.97;5146898;27;20043;-69
2024/01/13 02:33:30;;;;;;;36.38;20.25;;;;;;;-2.98;70.29;99926.09;5147138;28;20039;-69
2024/01/13 02:35:56;;;;;;;41.38;22.50;;;;;;;-3.00;70.31;99927.78;5146859;28;20047;-69
2024/01/13 02:38:23;;;;;;;37.08;20.67;;;;;;;-3.01;70.21;99939.03;5146626;28;20160;-69
2024/01/13 02:40:51;;;;;;;37.50;20.48;;;;;;;-2.99;70.28;99918.28;5146787;28;20053;-69
2024/01/13 02:43:17;;;;;;;37.15;19.90;;;;;;;-3.01;70.40;99923.47;5146989;28;20047;-69
2024/01/13 02:45:44;;;;;;;38.45;21.88;;;;;;;-2.97;70.27;99925.22;5146626;28;20050;-69
2024/01/13 02:48:17;;;;;;;34.33;19.48;;;;;;;-2.95;69.96;99912.28;5146971;28;20062;-69
2024/01/13 02:50:48;;;;;;;38.95;21.98;;;;;;;-2.99;70.31;99932.13;5129210;28;20039;-69
2024/01/13 02:53:14;;;;;;;39.70;21.33;;;;;;;-3.01;70.13;99926.06;5146977;28;20051;-69
2024/01/13 02:55:41;;;;;;;36.45;20.27;;;;;;;-3.21;70.30;99885.25;5146337;28;20195;-69
2024/01/13 02:58:09;;;;;;;41.10;21.98;;;;;;;-2.97;70.04;99922.63;5146858;28;20047;-68
2024/01/13 03:00:36;;;;;;;41.92;21.42;;;;;;;-2.94;69.75;99911.41;5146579;28;20050;-69
2024/01/13 03:03:03;;;;;;;38.85;21.30;;;;;;;-2.95;70.09;99915.72;5129077;28;20039;-69
2024/01/13 03:05:29;;;;;;;41.53;21.58;;;;;;;-2.97;69.93;99903.63;5146196;28;20366;-69
2024/01/13 03:07:56;;;;;;;40.58;21.27;;;;;;;-2.96;70.23;99913.13;5146494;28;20054;-69
2024/01/13 03:10:23;;;;;;;40.75;22.58;;;;;;;-2.97;70.03;99907.06;5146482;28;20307;-69
2024/01/13 03:12:49;;;;;;;38.95;21.98;;;;;;;-2.95;70.06;99901.91;5146477;28;20051;-69
2024/01/13 03:15:17;;;;;;;43.97;23.30;;;;;;;-2.93;69.90;99896.72;5146418;28;20047;-69
2024/01/13 03:17:44;;;;;;;38.90;21.60;;;;;;;-2.95;70.14;99904.50;5146139;28;20060;-69
2024/01/13 03:20:11;;;;;;;40.75;23.13;;;;;;;-2.92;70.06;99895.88;5146362;28;20050;-68
2024/01/13 03:22:38;;;;;;;44.95;23.90;;;;;;;-2.90;69.98;99899.34;5146363;28;20152;-69
2024/01/13 03:25:06;;;;;;;47.38;24.25;;;;;;;-2.91;70.09;99895.00;5127973;28;20039;-69
2024/01/13 03:27:33;;;;;;;45.70;24.75;;;;;;;-2.91;70.03;99895.00;5146201;27;20055;-70
2024/01/13 03:30:00;;;;;;;42.65;22.60;;;;;;;-2.92;70.07;99901.06;5149395;27;20099;-69
2024/01/13 03:32:28;;;;;;;43.38;22.35;;;;;;;-2.89;69.83;99890.69;5149738;27;20240;-69
2024/01/13 03:34:54;;;;;;;47.10;23.33;;;;;;;-2.87;69.93;99883.78;5149699;27;20092;-69
2024/01/13 03:37:21;;;;;;;44.80;23.25;;;;;;;-2.88;69.84;99885.53;5149636;27;20043;-69
2024/01/13 03:39:47;;;;;;;46.35;22.27;;;;;;;-2.97;70.36;99886.31;5149870;27;20042;-69
2024/01/13 03:42:14;;;;;;;47.85;26.25;;;;;;;-2.93;70.34;99888.94;5149822;27;20096;-69
2024/01/13 03:44:41;;;;;;;46.33;23.75;;;;;;;-3.16;70.52;99847.28;5149713;27;20039;-70
2024/01/13 03:47:08;;;;;;;43.80;23.25;;;;;;;-2.98;70.48;99884.59;5132264;27;20084;-69
2024/01/13 03:49:35;;;;;;;49.20;25.88;;;;;;;-2.95;70.53;99881.16;5149389;27;20050;-69
2024/01/13 03:52:02;;;;;;;46.28;25.10;;;;;;;-2.93;70.29;99868.19;5149610;27;20043;-69
2024/01/13 03:54:29;;;;;;;44.03;24.33;;;;;;;-2.95;70.55;99868.19;5149893;27;20039;-69
2024/01/13 03:56:55;;;;;;;43.05;23.95;;;;;;;-2.94;70.49;99869.91;5149526;27;20050;-69
2024/01/13 03:59:22;;;;;;;43.08;24.27;;;;;;;-2.92;70.82;99882.91;5149483;27;20099;-69
2024/01/13 04:01:49;;;;;;;44.80;25.27;;;;;;;-2.90;70.75;99881.19;5131959;27;20123;-69
2024/01/13 04:04:15;;;;;;;47.70;25.95;;;;;;;-2.97;70.93;99870.75;5131452;27;20039;-69
2024/01/13 04:06:43;;;;;;;43.88;23.40;;;;;;;-2.96;71.09;99874.22;5149541;27;20257;-69
2024/01/13 04:09:10;;;;;;;45.72;23.58;;;;;;;-2.98;71.17;99869.03;5149613;27;20204;-69
2024/01/13 04:11:36;;;;;;;56.75;26.42;;;;;;;-2.95;71.14;99863.88;5148946;27;20051;-69
2024/01/13 04:14:03;;;;;;;51.78;24.80;;;;;;;-3.18;70.58;99808.38;5148947;27;20043;-69
2024/01/13 04:16:30;;;;;;;46.63;25.40;;;;;;;-2.89;70.85;99849.19;5149449;27;20039;-69
2024/01/13 04:18:56;;;;;;;47.42;23.75;;;;;;;-2.90;70.98;99842.28;5130779;27;20039;-69
2024/01/13 04:21:23;;;;;;;53.10;25.73;;;;;;;-2.92;71.13;99836.22;5148447;27;20067;-69
2024/01/13 04:23:52;;;;;;;48.42;25.25;;;;;;;-2.95;71.19;99834.47;5148773;27;20042;-68
2024/01/13 04:26:19;;;;;;;50.03;24.63;;;;;;;-2.91;71.21;99830.16;5149199;27;20039;-69
2024/01/13 04:28:46;;;;;;;48.40;24.73;;;;;;;-2.91;71.21;99825.84;5148743;27;20249;-69
2024/01/13 04:31:12;;;;;;;47.30;24.70;;;;;;;-2.90;71.00;99840.56;5148632;27;20192;-69
2024/01/13 04:33:39;;;;;;;42.42;21.05;;;;;;;-2.91;70.98;99843.13;5148863;27;20279;-69
2024/01/13 04:36:06;;;;;;;42.75;22.35;;;;;;;-3.14;70.70;99791.13;5149295;27;20184;-69
2024/01/13 04:38:33;;;;;;;50.00;25.38;;;;;;;-2.96;71.25;99824.94;5148404;27;20046;-70
2024/01/13 04:41:01;;;;;;;44.35;22.83;;;;;;;-2.94;71.13;99836.19;5148697;27;20043;-69
2024/01/13 04:43:28;;;;;;;43.85;23.67;;;;;;;-2.93;71.20;99824.09;5148219;27;20055;-69
2024/01/13 04:45:56;;;;;;;43.22;21.67;;;;;;;-2.93;71.06;99822.38;5148225;27;20252;-69
2024/01/13 04:48:23;;;;;;;42.55;20.05;;;;;;;-2.95;71.15;99814.59;5148469;27;20192;-69
2024/01/13 04:50:50;;;;;;;48.58;25.23;;;;;;;-2.93;71.11;99812.00;5148426;27;20042;-69
2024/01/13 04:53:17;;;;;;;45.10;22.98;;;;;;;-2.93;71.23;99816.31;5148414;27;20288;-69
2024/01/13 04:55:43;;;;;;;46.20;23.67;;;;;;;-2.97;71.13;99816.31;5148282;27;20050;-69
2024/01/13 04:58:11;;;;;;;43.42;22.25;;;;;;;-3.02;71.65;99822.31;5148278;27;20315;-69
2024/01/13 05:00:39;;;;;;;44.95;25.42;;;;;;;-3.00;71.59;99813.69;5147961;27;20169;-69
2024/01/13 05:03:05;;;;;;;42.65;23.25;;;;;;;-2.92;71.09;99808.56;5148510;27;20039;-69
2024/01/13 05:05:32;;;;;;;40.25;22.15;;;;;;;-2.90;71.09;99824.13;5148076;27;20098;-69
2024/01/13 05:07:59;;;;;;;44.45;24.13;;;;;;;-2.97;71.17;99805.06;5148147;27;20111;-69
2024/01/13 05:10:25;;;;;;;47.75;22.70;;;;;;;-2.93;70.94;99817.19;5147750;27;20053;-70
2024/01/13 05:12:52;;;;;;;44.17;22.13;;;;;;;-2.93;71.00;99821.50;5147727;27;20091;-69
2024/01/13 05:15:20;;;;;;;45.38;25.75;;;;;;;-2.91;70.86;99819.78;5148026;27;20039;-69
2024/01/13 05:17:47;;;;;;;37.47;20.55;;;;;;;-2.95;70.91;99824.09;5148252;27;20043;-69
2024/01/13 05:20:13;;;;;;;38.03;20.88;;;;;;;-2.95;71.04;99814.59;5130229;27;20088;-70
2024/01/13 05:22:40;;;;;;;38.00;21.35;;;;;;;-3.12;70.67;99774.72;5147831;27;20291;-69
2024/01/13 05:25:08;;;;;;;40.38;22.35;;;;;;;-2.90;70.75;99817.22;5148064;27;20039;-69
2024/01/13 05:27:34;;;;;;;38.75;19.95;;;;;;;-2.92;70.41;99813.75;5129442;27;20030;-70
2024/01/13 05:30:01;;;;;;;38.28;21.20;;;;;;;-2.90;70.68;99824.13;5147981;27;20047;-69
2024/01/13 05:32:29;;;;;;;34.78;19.00;;;;;;;-2.92;70.61;99818.06;5147375;27;20039;-69
2024/01/13 05:34:56;;;;;;;35.60;18.73;;;;;;;-3.18;70.73;99781.59;5147590;27;20071;-69
2024/01/13 05:37:23;;;;;;;37.78;19.85;;;;;;;-3.00;70.99;99828.38;5147830;27;20314;-69
2024/01/13 05:39:50;;;;;;;33.63;17.08;;;;;;;-2.92;70.67;99839.66;5147817;27;20054;-69
2024/01/13 05:42:17;;;;;;;30.45;18.63;;;;;;;-2.90;70.38;99837.09;5147470;27;20045;-70
2024/01/13 05:44:43;;;;;;;35.17;18.85;;;;;;;-2.91;70.47;99837.94;5129372;27;20217;-69
2024/01/13 05:47:10;;;;;;;32.15;17.48;;;;;;;-2.92;70.43;99846.59;5147375;27;20043;-69
2024/01/13 05:49:38;;;;;;;35.55;17.08;;;;;;;-2.99;70.54;99837.91;5146988;27;20303;-69
2024/01/13 05:52:05;;;;;;;32.17;18.92;;;;;;;-2.97;70.53;99833.59;5147193;27;20051;-69
2024/01/13 05:54:32;;;;;;;31.80;16.27;;;;;;;-2.93;70.18;99837.94;5147258;27;20043;-69
2024/01/13 05:56:58;;;;;;;32.85;16.65;;;;;;;-2.96;70.29;99848.28;5147220;27;20059;-69
2024/01/13 05:59:25;;;;;;;28.45;15.63;;;;;;;-2.97;70.24;99850.00;5147121;27;20050;-69
2024/01/13 06:01:51;;;;;;;37.55;18.98;;;;;;;-2.95;70.07;99848.31;5147114;27;20038;-69
2024/01/13 06:04:18;;;;;;;28.10;15.15;;;;;;;-2.91;70.15;99856.09;5147101;27;20064;-69
2024/01/13 06:06:46;;;;;;;33.95;16.38;;;;;;;-2.94;70.17;99854.34;5146953;27;20127;-69
2024/01/13 06:09:13;;;;;;;33.13;18.92;;;;;;;-2.90;70.13;99863.91;5147079;27;20283;-69
2024/01/13 06:11:41;;;;;;;29.63;16.85;;;;;;;-2.95;70.32;99857.81;5147558;27;20227;-69
2024/01/13 06:14:08;;;;;;;26.83;15.75;;;;;;;-2.90;70.27;99857.84;5147240;27;20059;-69
2024/01/13 06:16:34;;;;;;;31.58;17.67;;;;;;;-2.91;70.18;99856.97;5146833;27;20039;-69
2024/01/13 06:19:02;;;;;;;35.83;18.17;;;;;;;-2.91;70.01;99849.19;5146807;27;20092;-69
2024/01/13 06:21:29;;;;;;;29.77;16.13;;;;;;;-2.91;70.34;99861.28;5146761;27;20063;-69
2024/01/13 06:23:58;;;;;;;30.27;16.10;;;;;;;-2.88;70.09;99859.59;5146847;27;20043;-68
2024/01/13 06:26:25;;;;;;;27.15;15.95;;;;;;;-2.97;70.53;99865.56;5146550;28;20092;-68
2024/01/13 06:28:52;;;;;;;29.85;15.75;;;;;;;-2.96;70.39;99863.84;5146818;28;20291;-68
2024/01/13 06:31:19;;;;;;;30.80;17.23;;;;;;;-2.93;70.12;99861.28;5146565;28;20050;-68
2024/01/13 06:33:45;;;;;;;28.15;16.77;;;;;;;-2.88;70.17;99861.31;5146886;28;20043;-68
2024/01/13 06:36:12;;;;;;;30.55;19.45;;;;;;;-2.98;70.25;99861.25;5146430;28;20089;-68
2024/01/13 06:38:38;;;;;;;27.52;15.75;;;;;;;-2.91;70.08;99851.78;5147014;28;20191;-68
2024/01/13 06:41:06;;;;;;;27.55;15.73;;;;;;;-2.92;69.91;99838.81;5146457;28;20039;-68
2024/01/13 06:43:33;;;;;;;28.90;15.65;;;;;;;-2.88;69.80;99837.97;5146743;28;20051;-68
2024/01/13 06:46:00;;;;;;;26.17;14.80;;;;;;;-2.95;70.06;99830.16;5146395;28;20035;-68
2024/01/13 06:48:26;;;;;;;29.52;16.00;;;;;;;-2.92;69.78;99837.09;5146906;28;20199;-68
2024/01/13 06:50:53;;;;;;;27.23;15.15;;;;;;;-2.90;69.79;99824.13;5146389;28;20050;-68
2024/01/13 06:53:19;;;;;;;26.92;14.73;;;;;;;-2.88;69.83;99827.59;5146684;28;20038;-68
2024/01/13 06:55:46;;;;;;;28.67;15.82;;;;;;;-2.93;69.94;99826.69;5128783;28;20036;-68
2024/01/13 06:58:14;;;;;;;27.77;15.55;;;;;;;-2.90;69.88;99818.94;5146575;28;20051;-68
2024/01/13 07:00:41;;;;;;;31.92;16.83;;;;;;;-2.92;69.83;99820.66;5146538;28;20043;-68
2024/01/13 07:03:07;;;;;;;30.55;17.45;;;;;;;-2.85;69.62;99819.81;5146659;27;20043;-68
2024/01/13 07:05:34;;;;;;;27.65;15.02;;;;;;;-2.84;69.64;99821.56;5150052;27;20096;-68
2024/01/13 07:08:00;;;;;;;24.58;13.75;;;;;;;-2.91;69.81;99822.38;5150457;27;20091;-68
2024/01/13 07:10:27;;;;;;;24.13;15.05;;;;;;;-2.92;69.63;99841.41;5132906;27;20047;-68
2024/01/13 07:12:54;;;;;;;25.58;15.65;;;;;;;-3.34;69.69;99765.06;5132636;27;20050;-68
2024/01/13 07:15:22;;;;;;;26.00;15.27;;;;;;;-3.13;69.61;99775.56;5150355;27;20096;-68
2024/01/13 07:17:48;;;;;;;27.70;15.30;;;;;;;-2.93;69.80;99835.34;5150299;27;20051;-68
2024/01/13 07:20:15;;;;;;;27.83;15.15;;;;;;;-2.88;69.69;99832.78;5150062;27;20203;-69
2024/01/13 07:22:42;;;;;;;23.70;13.85;;;;;;;-2.85;69.57;99827.59;5150210;27;20035;-68
2024/01/13 07:25:09;;;;;;;25.80;15.50;;;;;;;-2.88;69.68;99828.47;5150157;27;20054;-68
2024/01/13 07:27:36;;;;;;;26.27;16.15;;;;;;;-2.89;69.68;99821.53;5149749;27;20102;-68
2024/01/13 07:30:04;;;;;;;23.60;13.15;;;;;;;-2.92;69.61;99837.09;5149711;27;20199;-68
2024/01/13 07:32:32;;;;;;;22.55;13.88;;;;;;;-2.90;69.92;99825.00;5149755;27;20330;-68
2024/01/13 07:34:58;;;;;;;22.95;13.75;;;;;;;-3.15;69.85;99795.44;5149665;27;20051;-68
2024/01/13 07:37:25;;;;;;;24.20;14.07;;;;;;;-2.93;69.99;99830.16;5149640;27;20322;-68
2024/01/13 07:39:52;;;;;;;22.73;15.25;;;;;;;-2.85;69.42;99832.78;5150138;27;20379;-68
2024/01/13 07:42:18;;;;;;;23.58;14.27;;;;;;;-2.87;69.74;99842.28;5150077;27;20047;-68
2024/01/13 07:44:45;;;;;;;28.48;15.55;;;;;;;-3.10;69.60;99785.09;5149922;27;20104;-68
2024/01/13 07:47:12;;;;;;;24.70;14.07;;;;;;;-2.85;69.71;99820.69;5149487;27;20104;-68
2024/01/13 07:49:40;;;;;;;27.85;14.85;;;;;;;-3.09;69.88;99785.09;5149473;27;20095;-69
2024/01/13 07:52:07;;;;;;;26.52;13.80;;;;;;;-2.84;69.72;99819.84;5149602;27;20061;-70
2024/01/13 07:54:34;;;;;;;26.98;13.50;;;;;;;-2.84;69.46;99801.69;5149591;27;20039;-68
2024/01/13 07:57:01;;;;;;;26.35;15.07;;;;;;;-2.87;69.96;99812.03;5149594;27;20047;-68
2024/01/13 07:59:27;;;;;;;25.75;15.57;;;;;;;-2.87;70.03;99800.78;5149564;27;20043;-69
2024/01/13 08:01:54;;;;;;;27.92;14.80;;;;;;;-2.82;69.67;99805.16;5149462;27;20100;-69
2024/01/13 08:04:20;;;;;;;30.80;15.82;;;;;;;-2.81;69.79;99790.47;5149378;27;20084;-68
2024/01/13 08:06:49;;;;;;;29.38;15.85;;;;;;;-2.83;69.98;99802.56;5149216;27;20043;-68
2024/01/13 08:09:17;;;;;;;30.77;16.40;;;;;;;-2.82;70.37;99802.56;5149282;27;20042;-68
2024/01/13 08:11:44;;;;;;;25.48;15.27;;;;;;;-2.83;70.20;99790.44;5149457;27;20192;-69
2024/01/13 08:14:10;;;;;;;26.83;15.90;;;;;;;-2.96;69.80;99780.84;5148829;27;20203;-69
2024/01/13 08:16:37;;;;;;;28.55;17.23;;;;;;;-2.81;70.13;99811.22;5149438;27;20035;-70
2024/01/13 08:19:04;;;;;;;31.13;16.67;;;;;;;-2.78;70.37;99808.63;5149102;27;20290;-71
2024/01/13 08:21:31;;;;;;;27.88;15.43;;;;;;;-2.78;70.04;99801.72;5116579;28;20166;-69
2024/01/13 08:23:59;;;;;;;28.58;16.83;;;;;;;-3.01;69.92;99761.81;5108597;28;20040;-68
2024/01/13 08:26:26;;;;;;;29.17;15.80;;;;;;;-2.76;69.93;99809.50;5108130;28;20220;-69
2024/01/13 08:28:53;;;;;;;29.50;15.13;;;;;;;-2.97;69.89;99760.97;5107889;28;20181;-69
2024/01/13 08:31:20;;;;;;;31.42;16.45;;;;;;;-2.73;69.99;99801.75;5107833;28;20055;-69
2024/01/13 08:33:47;;;;;;;26.42;14.75;;;;;;;-3.47;69.88;99670.81;5107488;28;20123;-70
2024/01/13 08:36:14;;;;;;;29.58;14.18;;;;;;;-4.12;69.72;99551.22;5107617;28;20040;-70
2024/01/13 08:38:43;;;;;;;27.83;15.77;;;;;;;-2.72;70.11;99791.38;5107630;28;20047;-69
2024/01/13 08:41:11;;;;;;;27.08;17.55;;;;;;;-4.70;69.77;99452.50;5107451;28;20075;-70
2024/01/13 08:43:40;;;;;;;25.33;14.55;;;;;;;-3.31;69.72;99697.69;5107948;28;20046;-70
2024/01/13 08:46:07;;;;;;;29.20;17.08;;;;;;;-2.66;69.48;99774.97;5107072;28;20047;-68
2024/01/13 08:48:34;;;;;;;29.05;16.95;;;;;;;-2.66;69.98;99775.84;5107080;28;20044;-68
2024/01/13 08:51:00;;;;;;;29.42;16.13;;;;;;;-2.67;69.90;99776.69;5107503;28;20097;-70
2024/01/13 08:53:27;;;;;;;28.70;14.68;;;;;;;-2.62;69.68;99761.16;5107367;28;20193;-69
2024/01/13 08:55:54;;;;;;;26.60;15.23;;;;;;;-2.65;69.61;99772.38;5106288;28;20055;-69
2024/01/13 08:58:22;;;;;;;28.30;16.08;;;;;;;-2.62;69.61;99764.59;5106667;28;20101;-69
2024/01/13 09:00:49;;;;;;;27.60;14.65;;;;;;;-2.58;69.36;99752.50;5107196;28;20040;-69
2024/01/13 09:03:15;;;;;;;27.33;15.55;;;;;;;-2.64;69.61;99749.88;5107272;28;20093;-69
2024/01/13 09:05:42;;;;;;;33.58;17.75;;;;;;;-2.59;69.60;99753.38;5106876;28;20308;-69
2024/01/13 09:08:08;;;;;;;32.70;16.88;;;;;;;-2.60;70.02;99762.00;5107163;28;20044;-69
2024/01/13 09:10:35;;;;;;;28.23;16.52;;;;;;;-2.54;69.67;99750.78;5107324;28;20105;-69
2024/01/13 09:13:04;;;;;;;30.55;15.32;;;;;;;-2.51;69.37;99750.81;5106711;28;20304;-69
2024/01/13 09:15:32;;;;;;;28.88;17.35;;;;;;;-2.73;69.37;99714.41;5106738;28;20239;-69
2024/01/13 09:18:02;;;;;;;30.75;15.35;;;;;;;-2.79;69.31;99691.03;5106818;28;20058;-69
2024/01/13 09:20:29;;;;;;;28.00;16.05;;;;;;;-2.52;69.52;99742.16;5110761;27;20085;-70
2024/01/13 09:22:56;;;;;;;29.90;16.60;;;;;;;-2.51;69.54;99737.81;5148047;27;20043;-70
2024/01/13 09:25:23;;;;;;;29.20;17.25;;;;;;;-2.46;69.34;99746.50;5147099;27;20046;-70
2024/01/13 09:27:50;;;;;;;32.03;17.15;;;;;;;-2.45;69.39;99740.44;5146908;27;20035;-69
2024/01/13 09:30:17;;;;;;;27.23;17.52;;;;;;;-2.45;69.28;99743.03;5147307;27;20039;-69
2024/01/13 09:32:45;;;;;;;28.73;15.00;;;;;;;-2.45;69.28;99733.53;5147314;27;20253;-69
2024/01/13 09:35:11;;;;;;;31.25;16.23;;;;;;;-2.45;69.13;99725.75;5147420;27;20042;-69
2024/01/13 09:37:38;;;;;;;29.88;16.08;;;;;;;-2.39;69.09;99732.69;5147285;27;20072;-69
2024/01/13 09:40:06;;;;;;;29.20;15.95;;;;;;;-2.37;69.06;99721.44;5146427;27;20058;-69
2024/01/13 09:42:50;;;;;;;33.28;17.92;;;;;;;-2.33;69.23;99725.78;5147662;27;20043;-69
2024/01/13 09:45:18;;;;;;;30.42;17.52;;;;;;;-2.45;69.14;99683.34;5147578;27;20050;-69
2024/01/13 09:47:47;;;;;;;35.95;18.85;;;;;;;-2.26;69.12;99710.22;5147512;27;20307;-69
2024/01/13 09:50:14;;;;;;;34.88;18.65;;;;;;;-2.67;69.18;99635.72;5147612;27;20043;-69
2024/01/13 09:52:41;;;;;;;31.95;18.20;;;;;;;-2.23;69.16;99702.44;5147273;27;20200;-68
2024/01/13 09:55:09;;;;;;;29.63;16.42;;;;;;;-2.19;69.10;99693.78;5146993;27;20043;-69
2024/01/13 09:57:36;;;;;;;37.60;19.20;;;;;;;-2.13;69.06;99684.25;5147381;27;20058;-69
2024/01/13 10:00:04;;;;;;;35.60;17.48;;;;;;;-2.11;69.28;99673.88;5147310;27;20050;-69
2024/01/13 10:02:31;;;;;;;32.25;19.63;;;;;;;-2.06;69.18;99677.34;5146807;27;20085;-69
2024/01/13 10:04:59;;;;;;;36.47;19.42;;;;;;;-1.93;69.70;99683.41;5147032;27;20043;-68
2024/01/13 10:07:26;;;;;;;37.15;18.35;;;;;;;-1.74;69.38;99678.22;5147115;27;20092;-69
2024/01/13 10:09:52;;;;;;;36.42;17.67;;;;;;;-1.56;68.93;99672.13;5146951;27;20102;-69
2024/01/13 10:12:20;;;;;;;38.88;18.92;;;;;;;-1.53;68.37;99673.84;5147237;27;20039;-68
2024/01/13 10:14:49;;;;;;;35.45;19.27;;;;;;;-1.94;69.06;99593.34;5146527;27;20062;-69
2024/01/13 10:17:16;;;;;;;38.50;19.08;;;;;;;-1.30;68.19;99633.06;5145737;27;20035;-69
2024/01/13 10:19:43;;;;;;;30.67;17.58;;;;;;;-1.03;67.62;99655.53;5146575;27;20039;-68
2024/01/13 10:22:11;;;;;;;32.53;18.42;;;;;;;-0.81;67.40;99653.72;5146520;27;20273;-68
2024/01/13 10:24:38;;;;;;;34.85;17.52;;;;;;;-0.71;66.54;99635.47;5146691;28;20080;-68
2024/01/13 10:27:08;;;;;;;34.53;18.92;;;;;;;-2.75;65.89;99240.53;5146523;28;20307;-70
2024/01/13 10:29:36;;;;;;;30.75;17.10;;;;;;;-0.15;65.03;99643.78;5146573;28;20054;-69
2024/01/13 10:32:03;;;;;;;31.85;17.33;;;;;;;-3.80;64.38;98972.22;5146995;28;20038;-69
2024/01/13 10:34:34;;;;;;;30.55;16.27;;;;;;;0.11;63.89;99631.41;5146562;28;20057;-71
2024/01/13 10:37:11;;;;;;;34.25;17.80;;;;;;;-0.17;62.83;99572.59;5147072;27;20168;-69
2024/01/13 10:39:38;;;;;;;32.40;17.02;;;;;;;0.55;63.12;99624.91;5151434;27;20054;-69
2024/01/13 10:42:09;;;;;;;31.60;16.60;;;;;;;0.64;61.39;99622.19;5151089;27;20100;-69
2024/01/13 10:44:40;;;;;;;33.30;18.05;;;;;;;1.00;61.42;99610.47;5150083;27;20047;-69
2024/01/13 10:47:13;;;;;;;28.08;15.80;;;;;;;0.90;60.47;99614.06;5150637;27;20300;-69
2024/01/13 10:49:42;;;;;;;28.95;16.75;;;;;;;-0.05;59.75;99400.53;5150598;27;20295;-69
2024/01/13 10:52:17;;;;;;;31.10;16.02;;;;;;;0.04;59.72;99387.38;5150775;27;20051;-71
2024/01/13 10:54:45;;;;;;;31.92;17.90;;;;;;;1.46;59.16;99597.66;5150733;27;20043;-69
2024/01/13 10:57:14;;;;;;;31.85;16.77;;;;;;;1.52;59.13;99600.19;5150281;27;20070;-69
2024/01/13 10:59:43;;;;;;;32.50;17.00;;;;;;;1.61;58.29;99588.75;5150244;27;20047;-69
2024/01/13 11:02:13;;;;;;;35.83;16.58;;;;;;;1.62;58.17;99540.00;5150159;27;20365;-71
2024/01/13 11:04:41;;;;;;;28.98;15.57;;;;;;;2.07;57.12;99581.03;5150779;27;20096;-68
2024/01/13 11:07:08;;;;;;;31.20;18.42;;;;;;;1.64;56.56;99517.31;5150581;27;20035;-68
2024/01/13 11:09:37;;;;;;;33.63;16.83;;;;;;;1.84;56.24;99557.91;5150089;27;20326;-69
2024/01/13 11:12:12;;;;;;;33.85;19.73;;;;;;;1.83;56.45;99524.81;5149180;27;20043;-70
2024/01/13 11:14:50;;;;;;;33.63;19.20;;;;;;;2.12;56.55;99555.69;5150299;27;20053;-69
2024/01/13 11:17:18;;;;;;;32.45;17.65;;;;;;;2.23;56.43;99542.41;5150406;27;20088;-70